Time;durP1;ratioP1;P1;durP2;ratioP2;P2;SDS_P1;SDS_P2;PMS_P1;PMS_P2;Temp;Humidity;BMP_temperature;BMP_pressure;BME280_temperature;BME280_humidity;BME280_pressure;Samples;Min_cycle;Max_cycle;Signal;HPM_P1;HPM_P2
2022/08/03 00:01:00;;;;;;;2.63;2.42;;;24.20;61.90;;;;;;5024681;28;20022;-51
2022/08/03 00:03:25;;;;;;;3.17;2.30;;;24.20;61.90;;;;;;5023173;28;20108;-52
2022/08/03 00:05:51;;;;;;;5.45;2.40;;;24.20;61.90;;;;;;5024500;28;20191;-50
2022/08/03 00:08:16;;;;;;;2.05;1.90;;;24.20;61.80;;;;;;5025025;28;20423;-56
2022/08/03 00:10:42;;;;;;;2.40;2.20;;;24.20;61.90;;;;;;5023915;28;20025;-54
2022/08/03 00:13:07;;;;;;;3.83;2.30;;;24.20;61.90;;;;;;5024647;28;20022;-50
2022/08/03 00:15:33;;;;;;;2.70;2.50;;;24.20;61.90;;;;;;5022890;28;20041;-51
2022/08/03 00:17:58;;;;;;;2.88;2.13;;;24.10;61.80;;;;;;5024265;28;20037;-51
2022/08/03 00:20:24;;;;;;;2.85;2.17;;;24.20;61.90;;;;;;5021105;28;20029;-56
2022/08/03 00:22:49;;;;;;;2.47;2.10;;;24.20;61.90;;;;;;5023899;28;20479;-53
2022/08/03 00:25:15;;;;;;;2.20;1.88;;;24.10;61.90;;;;;;5025923;28;20026;-52
2022/08/03 00:27:40;;;;;;;2.58;2.03;;;24.10;61.80;;;;;;5025190;28;20030;-53
2022/08/03 00:30:07;;;;;;;3.40;2.35;;;24.20;61.90;;;;;;5024199;28;20061;-51
2022/08/03 00:32:32;;;;;;;1.98;1.88;;;24.10;61.80;;;;;;5024180;28;20045;-56
2022/08/03 00:34:58;;;;;;;2.10;1.98;;;24.20;61.90;;;;;;5023667;28;20060;-50
2022/08/03 00:37:23;;;;;;;3.40;2.90;;;24.20;61.90;;;;;;5024562;28;20040;-52
2022/08/03 00:39:49;;;;;;;2.63;2.22;;;24.10;61.80;;;;;;5022954;28;20060;-53
2022/08/03 00:42:14;;;;;;;2.67;2.08;;;24.10;61.70;;;;;;5024847;28;20506;-49
2022/08/03 00:44:41;;;;;;;2.17;1.98;;;24.10;61.70;;;;;;5024199;28;20044;-50
2022/08/03 00:47:06;;;;;;;2.42;2.22;;;24.10;61.70;;;;;;5024955;28;20026;-52
2022/08/03 00:49:32;;;;;;;2.65;1.95;;;24.10;61.70;;;;;;5022127;28;20072;-52
2022/08/03 00:51:59;;;;;;;2.75;2.30;;;24.10;61.70;;;;;;5012335;28;20069;-52
2022/08/03 00:54:24;;;;;;;2.20;1.90;;;24.10;61.70;;;;;;5003809;28;20423;-52
2022/08/03 00:56:50;;;;;;;2.78;2.45;;;24.10;61.70;;;;;;5010310;28;20037;-52
2022/08/03 00:59:15;;;;;;;2.30;1.90;;;24.10;61.70;;;;;;5023266;28;20036;-53
2022/08/03 01:01:41;;;;;;;2.15;1.95;;;24.10;61.60;;;;;;5009949;28;20068;-54
2022/08/03 01:04:06;;;;;;;2.90;2.47;;;24.10;61.60;;;;;;5003991;28;20240;-50
2022/08/03 01:06:45;;;;;;;2.20;2.00;;;24.10;61.60;;;;;;5006687;28;20171;-52
2022/08/03 01:09:48;;;;;;;3.70;2.10;;;24.10;61.60;;;;;;5021703;28;20424;-55
2022/08/03 01:12:24;;;;;;;3.17;2.30;;;24.10;61.70;;;;;;4994995;28;20033;-54
2022/08/03 01:14:54;;;;;;;2.50;2.15;;;24.10;61.70;;;;;;5026177;28;20022;-52
2022/08/03 01:17:47;;;;;;;2.42;2.22;;;24.10;61.70;;;;;;5022178;28;20040;-52
2022/08/03 01:20:13;;;;;;;3.80;2.30;;;24.10;61.60;;;;;;5023014;28;20087;-55
2022/08/03 01:22:55;;;;;;;3.85;2.47;;;24.10;61.70;;;;;;5021356;28;20465;-52
2022/08/03 01:25:42;;;;;;;2.45;2.25;;;24.10;61.60;;;;;;5022042;28;20021;-55
2022/08/03 01:28:26;;;;;;;2.55;1.95;;;24.10;61.50;;;;;;5023215;28;20033;-53
2022/08/03 01:30:52;;;;;;;2.53;2.20;;;24.10;61.50;;;;;;5023355;28;20037;-55
2022/08/03 01:33:20;;;;;;;2.47;2.05;;;24.10;61.50;;;;;;5021376;28;20056;-53
2022/08/03 01:35:49;;;;;;;1.80;1.70;;;24.10;61.50;;;;;;5023390;28;20402;-54
2022/08/03 01:38:23;;;;;;;2.75;2.00;;;24.00;61.40;;;;;;5021152;28;20116;-50
2022/08/03 01:40:50;;;;;;;2.33;2.13;;;24.10;61.40;;;;;;5021209;28;20514;-53
2022/08/03 01:43:17;;;;;;;2.30;1.73;;;24.00;61.30;;;;;;5021825;28;20033;-53
2022/08/03 01:45:42;;;;;;;2.03;1.80;;;24.00;61.40;;;;;;5021512;28;20049;-55
2022/08/03 01:48:08;;;;;;;3.70;2.20;;;24.10;61.40;;;;;;5021678;28;20060;-49
2022/08/03 01:50:33;;;;;;;2.22;2.00;;;24.00;61.90;;;;;;5021584;28;20044;-49
2022/08/03 01:52:59;;;;;;;2.45;2.17;;;24.00;61.30;;;;;;5021676;28;20030;-50
2022/08/03 01:55:27;;;;;;;2.40;2.20;;;24.10;61.40;;;;;;5021901;28;20036;-56
2022/08/03 01:57:52;;;;;;;2.30;2.10;;;24.10;61.50;;;;;;5023793;28;20044;-49
2022/08/03 02:00:18;;;;;;;2.10;1.90;;;24.10;61.30;;;;;;5022836;28;20030;-49
2022/08/03 02:02:44;;;;;;;2.95;2.00;;;24.00;61.30;;;;;;5022568;28;20037;-52
2022/08/03 02:05:10;;;;;;;2.20;1.92;;;24.10;61.30;;;;;;5022573;28;20041;-56
2022/08/03 02:07:35;;;;;;;2.00;1.80;;;24.00;61.30;;;;;;5023454;28;20430;-54
2022/08/03 02:10:02;;;;;;;2.22;2.00;;;24.00;61.30;;;;;;5022233;28;20025;-50
2022/08/03 02:12:29;;;;;;;3.75;2.03;;;24.00;61.30;;;;;;5005856;28;20037;-56
2022/08/03 02:14:55;;;;;;;2.20;2.00;;;24.10;61.30;;;;;;5022496;28;20029;-50
2022/08/03 02:17:20;;;;;;;2.22;2.05;;;24.10;61.40;;;;;;5022251;28;20398;-49
2022/08/03 02:19:46;;;;;;;2.08;1.88;;;24.00;61.30;;;;;;5022625;28;20026;-53
2022/08/03 02:22:12;;;;;;;3.08;2.28;;;24.00;61.40;;;;;;5022197;28;20022;-54
2022/08/03 02:24:37;;;;;;;2.30;1.80;;;24.00;61.40;;;;;;5022334;28;20033;-52
2022/08/03 02:27:05;;;;;;;3.15;2.03;;;24.00;61.30;;;;;;5022379;28;20030;-51
2022/08/03 02:29:32;;;;;;;2.45;2.17;;;24.00;61.20;;;;;;5021031;28;20483;-53
2022/08/03 02:31:57;;;;;;;3.38;2.30;;;24.00;61.30;;;;;;5021915;28;20030;-51
2022/08/03 02:34:24;;;;;;;4.07;2.28;;;24.00;61.30;;;;;;5021137;28;20033;-51
2022/08/03 02:36:49;;;;;;;3.25;2.35;;;24.00;61.10;;;;;;5021460;28;20450;-51
2022/08/03 02:39:19;;;;;;;3.20;2.17;;;24.00;61.20;;;;;;5021588;28;20021;-50
2022/08/03 02:41:46;;;;;;;2.70;2.00;;;24.00;61.30;;;;;;5021453;28;20041;-51
2022/08/03 02:44:12;;;;;;;3.38;1.90;;;24.00;61.30;;;;;;5013584;28;20413;-56
2022/08/03 02:46:40;;;;;;;3.08;2.10;;;24.00;61.30;;;;;;5003191;28;20022;-50
2022/08/03 02:49:05;;;;;;;2.70;2.25;;;24.00;61.20;;;;;;5005004;28;20539;-51
2022/08/03 02:51:32;;;;;;;2.58;1.90;;;24.00;61.30;;;;;;5005084;28;20057;-52
2022/08/03 02:53:57;;;;;;;6.38;2.33;;;24.00;61.20;;;;;;5012896;28;20441;-54
2022/08/03 02:56:24;;;;;;;2.53;2.13;;;24.00;61.30;;;;;;5024758;28;20025;-54
2022/08/03 02:58:50;;;;;;;3.63;1.90;;;24.00;61.30;;;;;;5024096;28;20188;-58
2022/08/03 03:01:17;;;;;;;2.55;2.35;;;24.00;61.30;;;;;;5025456;28;20036;-56
2022/08/03 03:03:44;;;;;;;4.07;2.47;;;24.00;61.10;;;;;;5024750;28;20025;-50
2022/08/03 03:06:09;;;;;;;2.65;2.20;;;23.90;61.20;;;;;;5025972;28;20029;-53
2022/08/03 03:08:35;;;;;;;2.50;2.30;;;24.00;61.20;;;;;;5007397;28;20028;-52
2022/08/03 03:11:00;;;;;;;3.55;2.20;;;23.90;61.30;;;;;;5023846;28;20430;-52
2022/08/03 03:13:27;;;;;;;2.58;2.30;;;24.00;61.20;;;;;;5024420;28;20029;-54
2022/08/03 03:15:52;;;;;;;2.33;2.10;;;23.90;61.10;;;;;;5024420;28;20050;-52
2022/08/03 03:18:17;;;;;;;3.22;2.42;;;23.90;61.10;;;;;;5024987;28;20485;-49
2022/08/03 03:20:43;;;;;;;2.83;2.53;;;23.90;61.20;;;;;;5023284;28;20029;-54
2022/08/03 03:23:09;;;;;;;2.70;2.30;;;24.00;61.20;;;;;;5023761;28;20032;-57
2022/08/03 03:25:34;;;;;;;2.08;1.83;;;23.90;61.10;;;;;;5023199;28;20056;-50
2022/08/03 03:28:00;;;;;;;2.28;2.08;;;23.90;61.20;;;;;;5023904;28;20036;-51
2022/08/03 03:30:25;;;;;;;2.20;2.00;;;23.90;61.10;;;;;;5023148;28;20518;-55
2022/08/03 03:32:51;;;;;;;2.40;1.80;;;23.90;61.20;;;;;;5008490;28;20041;-52
2022/08/03 03:35:17;;;;;;;5.28;2.70;;;23.90;61.20;;;;;;5018977;28;20033;-49
2022/08/03 03:37:42;;;;;;;2.40;2.20;;;23.90;61.10;;;;;;5007278;28;20588;-49
2022/08/03 03:40:08;;;;;;;2.30;2.10;;;23.90;61.20;;;;;;5025489;28;20051;-52
2022/08/03 03:42:34;;;;;;;2.47;2.08;;;23.90;61.20;;;;;;5024251;28;20064;-54
2022/08/03 03:45:03;;;;;;;2.63;2.42;;;23.90;61.20;;;;;;5023960;28;20037;-49
2022/08/03 03:47:29;;;;;;;2.72;2.30;;;23.90;61.70;;;;;;5023507;28;20068;-50
2022/08/03 03:49:55;;;;;;;3.28;2.40;;;23.90;61.10;;;;;;5023147;28;20026;-54
2022/08/03 03:52:20;;;;;;;3.95;2.10;;;23.90;61.10;;;;;;5023121;28;20040;-53
2022/08/03 03:54:46;;;;;;;3.50;2.20;;;23.90;61.20;;;;;;5025101;28;20033;-54
2022/08/03 03:57:11;;;;;;;2.45;2.25;;;23.90;61.10;;;;;;5024702;28;20131;-52
2022/08/03 03:59:38;;;;;;;3.20;2.58;;;23.90;61.20;;;;;;5022400;28;20607;-49
2022/08/03 04:02:04;;;;;;;2.38;1.85;;;23.90;61.10;;;;;;5024425;28;20394;-51
2022/08/03 04:12:43;;;;;;;3.42;2.10;;;23.90;61.10;;;;;;5023282;28;20079;-53
2022/08/03 04:15:09;;;;;;;2.88;2.58;;;23.90;61.10;;;;;;5024420;28;20029;-51
2022/08/03 04:17:34;;;;;;;2.63;2.25;;;23.90;61.20;;;;;;5022668;28;20111;-49
2022/08/03 04:20:00;;;;;;;2.85;2.40;;;23.90;61.10;;;;;;5021870;28;20373;-52
2022/08/03 04:22:26;;;;;;;3.65;2.92;;;23.90;61.30;;;;;;5014538;28;20025;-51
2022/08/03 04:24:59;;;;;;;6.95;2.75;;;23.80;61.10;;;;;;5021394;28;20341;-49
2022/08/03 04:27:26;;;;;;;6.85;3.03;;;23.80;60.90;;;;;;5023158;28;20030;-52
2022/08/03 04:29:52;;;;;;;5.22;2.38;;;23.80;60.50;;;;;;5022454;28;20030;-52
2022/08/03 04:34:52;;;;;;;5.50;2.70;;;23.70;60.80;;;;;;5020252;28;20041;-51
2022/08/03 04:37:28;;;;;;;2.88;2.67;;;23.70;60.70;;;;;;5021719;28;20409;-49
2022/08/03 04:39:53;;;;;;;5.75;2.60;;;23.80;60.60;;;;;;4982988;28;20659;-52
2022/08/03 04:42:19;;;;;;;6.07;2.53;;;23.70;60.50;;;;;;5017763;28;20640;-52
2022/08/03 04:44:44;;;;;;;4.72;2.80;;;23.80;60.70;;;;;;5005674;28;20037;-49
2022/08/03 04:47:10;;;;;;;5.07;2.45;;;23.70;60.70;;;;;;5025678;28;20095;-50
2022/08/03 04:49:36;;;;;;;5.13;2.60;;;23.70;60.70;;;;;;5024352;28;20033;-52
2022/08/03 04:52:02;;;;;;;3.50;2.75;;;23.80;60.70;;;;;;5006076;28;20075;-52
2022/08/03 04:54:27;;;;;;;3.60;2.60;;;23.80;60.60;;;;;;5006715;28;20026;-50
2022/08/03 04:56:53;;;;;;;4.10;2.90;;;23.70;60.60;;;;;;4989580;28;20033;-49
2022/08/03 04:59:18;;;;;;;3.20;2.90;;;23.70;60.40;;;;;;5023764;28;20040;-50
2022/08/03 05:01:44;;;;;;;5.50;3.30;;;23.70;60.40;;;;;;5023079;28;20025;-50
2022/08/03 05:04:09;;;;;;;4.13;2.83;;;23.70;60.30;;;;;;5023399;28;20033;-49
2022/08/03 05:06:35;;;;;;;3.35;3.05;;;23.80;60.50;;;;;;5023482;28;20403;-49
2022/08/03 05:09:00;;;;;;;3.60;3.30;;;23.80;60.60;;;;;;5022754;28;20046;-50
2022/08/03 05:11:26;;;;;;;4.28;3.03;;;23.80;60.80;;;;;;5022576;28;20025;-48
2022/08/03 05:13:51;;;;;;;5.22;3.25;;;23.80;60.90;;;;;;5021346;28;20018;-49
2022/08/03 05:16:17;;;;;;;3.78;3.08;;;23.80;60.90;;;;;;5027149;28;20022;-51
2022/08/03 05:18:42;;;;;;;6.07;3.60;;;23.80;61.30;;;;;;5024340;28;20021;-51
2022/08/03 05:21:08;;;;;;;4.75;3.20;;;23.80;61.30;;;;;;5030450;28;20488;-49
2022/08/03 05:23:34;;;;;;;5.15;2.70;;;23.80;61.40;;;;;;5035513;28;20041;-48
2022/08/03 05:26:00;;;;;;;10.73;3.15;;;23.80;61.50;;;;;;5038982;28;20022;-50
2022/08/03 05:28:25;;;;;;;7.93;3.20;;;23.70;62.00;;;;;;5022710;28;20129;-49
2022/08/03 05:30:50;;;;;;;5.95;3.17;;;23.80;62.20;;;;;;5022812;28;20029;-53
2022/08/03 05:33:16;;;;;;;4.20;3.10;;;23.70;62.20;;;;;;5037141;28;20259;-54
2022/08/03 05:35:42;;;;;;;3.53;3.22;;;23.70;62.20;;;;;;5022900;28;20447;-51
2022/08/03 05:38:07;;;;;;;4.28;2.78;;;23.70;62.50;;;;;;5041696;28;20029;-50
2022/08/03 05:40:33;;;;;;;4.05;3.10;;;23.70;62.50;;;;;;5033445;28;20051;-49
2022/08/03 05:42:58;;;;;;;3.53;3.22;;;23.70;62.70;;;;;;5041432;28;20449;-49
2022/08/03 05:45:24;;;;;;;6.95;3.22;;;23.70;62.70;;;;;;5043005;28;20040;-54
2022/08/03 05:47:49;;;;;;;5.85;3.97;;;23.70;63.00;;;;;;5043213;28;20029;-52
2022/08/03 05:50:16;;;;;;;5.18;3.30;;;23.70;63.40;;;;;;5040781;28;20036;-51
2022/08/03 05:52:42;;;;;;;6.50;3.90;;;23.70;64.30;;;;;;5044221;28;20128;-57
2022/08/03 05:55:08;;;;;;;7.50;3.53;;;23.70;63.90;;;;;;5046173;28;20060;-52
2022/08/03 05:57:33;;;;;;;7.97;4.80;;;23.70;65.10;;;;;;5045996;28;20060;-56
2022/08/03 05:59:59;;;;;;;7.80;4.45;;;23.70;65.70;;;;;;5044078;28;20060;-53
2022/08/03 06:02:25;;;;;;;10.00;4.03;;;23.70;65.90;;;;;;5044224;28;20029;-51
2022/08/03 06:04:51;;;;;;;12.82;4.20;;;23.80;66.20;;;;;;5045225;28;20029;-53
2022/08/03 06:07:16;;;;;;;7.47;3.63;;;23.80;66.00;;;;;;5045040;28;20620;-52
2022/08/03 06:09:42;;;;;;;7.80;3.28;;;23.80;65.50;;;;;;5037488;28;20144;-53
2022/08/03 06:12:07;;;;;;;8.07;3.45;;;23.80;65.10;;;;;;5044478;28;20033;-51
2022/08/03 06:14:33;;;;;;;6.28;3.60;;;23.80;64.70;;;;;;5044109;28;20047;-53
2022/08/03 06:16:58;;;;;;;8.77;3.50;;;23.80;64.40;;;;;;5044581;28;20087;-49
2022/08/03 06:19:25;;;;;;;7.13;3.30;;;23.90;64.20;;;;;;5044039;28;20036;-53
2022/08/03 06:21:51;;;;;;;3.88;3.38;;;23.90;64.00;;;;;;5030199;28;20033;-52
2022/08/03 06:24:16;;;;;;;4.90;3.03;;;23.90;63.70;;;;;;5048608;28;20040;-51
2022/08/03 06:26:42;;;;;;;5.80;3.28;;;23.90;63.80;;;;;;5047367;28;20029;-54
2022/08/03 06:29:07;;;;;;;7.88;3.55;;;23.90;63.50;;;;;;5029857;28;20060;-50
2022/08/03 06:31:33;;;;;;;4.43;3.20;;;23.90;63.10;;;;;;5048490;28;20111;-51
2022/08/03 06:33:59;;;;;;;4.57;3.80;;;23.90;63.70;;;;;;5048076;28;20033;-52
2022/08/03 06:36:30;;;;;;;5.78;3.00;;;23.90;62.80;;;;;;5048024;28;20106;-53
2022/08/03 06:38:58;;;;;;;6.95;4.03;;;24.00;62.60;;;;;;5029402;28;20021;-53
2022/08/03 06:41:24;;;;;;;3.40;3.13;;;24.00;62.10;;;;;;5026932;28;20053;-49
2022/08/03 06:43:50;;;;;;;3.85;3.53;;;24.10;61.40;;;;;;5028552;28;20049;-53
2022/08/03 06:46:15;;;;;;;4.32;3.45;;;24.10;60.80;;;;;;5028232;28;20684;-53
2022/08/03 06:48:41;;;;;;;6.13;3.50;;;24.10;60.70;;;;;;5042411;28;20083;-55
2022/08/03 06:51:06;;;;;;;4.88;3.40;;;24.00;61.30;;;;;;5047882;28;20025;-55
2022/08/03 06:53:32;;;;;;;4.97;3.38;;;24.00;61.90;;;;;;5037556;28;20553;-52
2022/08/03 06:55:57;;;;;;;4.40;3.15;;;24.00;61.40;;;;;;5047405;28;20028;-52
2022/08/03 06:58:23;;;;;;;5.75;3.20;;;24.00;60.80;;;;;;5036545;28;20056;-49
2022/08/03 07:00:48;;;;;;;3.97;3.25;;;24.10;60.40;;;;;;5027419;28;20041;-55
2022/08/03 07:03:14;;;;;;;3.78;3.03;;;24.10;60.20;;;;;;5037543;28;20120;-55
2022/08/03 07:05:41;;;;;;;3.38;3.00;;;24.10;60.50;;;;;;5029826;28;20037;-53
2022/08/03 07:08:06;;;;;;;3.13;2.92;;;24.10;60.20;;;;;;5046992;28;20079;-53
2022/08/03 07:10:32;;;;;;;3.47;2.42;;;24.10;60.30;;;;;;5046787;28;20037;-55
2022/08/03 07:12:57;;;;;;;3.75;2.47;;;24.10;60.00;;;;;;5046732;28;20093;-55
2022/08/03 07:15:23;;;;;;;2.72;2.38;;;24.10;58.30;;;;;;5048613;28;20035;-57
2022/08/03 07:17:49;;;;;;;4.60;2.85;;;24.20;57.90;;;;;;5029767;28;20083;-54
2022/08/03 07:20:17;;;;;;;5.13;3.25;;;24.20;57.70;;;;;;5047119;28;20029;-55
2022/08/03 07:22:42;;;;;;;4.15;2.92;;;24.20;58.20;;;;;;5047411;28;20035;-53
2022/08/03 07:25:08;;;;;;;3.90;3.22;;;24.20;58.70;;;;;;5047062;28;20028;-53
2022/08/03 07:27:34;;;;;;;3.58;3.20;;;24.20;59.00;;;;;;5046944;28;20037;-56
2022/08/03 07:29:59;;;;;;;3.95;2.90;;;24.10;58.10;;;;;;5046772;28;20048;-57
2022/08/03 07:32:25;;;;;;;2.50;2.30;;;24.20;57.60;;;;;;5046764;28;20036;-57
2022/08/03 07:34:50;;;;;;;3.40;2.33;;;24.20;56.10;;;;;;5046718;28;20083;-55
2022/08/03 07:37:16;;;;;;;2.72;2.53;;;24.20;54.80;;;;;;5045876;28;22213;-57
2022/08/03 07:39:41;;;;;;;2.78;2.58;;;24.20;55.90;;;;;;5028110;28;20043;-55
2022/08/03 07:42:07;;;;;;;4.70;2.47;;;24.20;55.90;;;;;;5046757;28;20040;-55
2022/08/03 07:44:32;;;;;;;2.97;2.78;;;24.20;56.60;;;;;;5046757;28;20033;-54
2022/08/03 07:46:58;;;;;;;4.20;2.90;;;24.20;56.60;;;;;;5046942;28;20228;-57
2022/08/03 07:49:24;;;;;;;3.25;2.47;;;24.20;56.50;;;;;;5034086;28;20030;-57
2022/08/03 07:52:46;;;;;;;4.93;2.42;;;24.20;55.90;;;;;;5026965;28;20505;-54
2022/08/03 07:54:35;;;;;;;3.38;2.70;;;24.20;55.40;;;;;;5006726;28;20038;-54
2022/08/03 07:57:00;;;;;;;3.58;2.53;;;24.20;55.80;;;;;;5006293;28;20034;-57
2022/08/03 07:59:26;;;;;;;3.03;2.40;;;24.30;52.90;;;;;;5006779;28;20088;-56
2022/08/03 08:01:52;;;;;;;5.15;2.30;;;24.30;53.20;;;;;;5006999;28;20037;-56
2022/08/03 08:04:18;;;;;;;3.30;2.45;;;24.30;52.80;;;;;;5006642;28;20120;-54
2022/08/03 08:06:43;;;;;;;2.15;1.80;;;24.30;53.50;;;;;;5007010;28;20129;-54
2022/08/03 08:09:10;;;;;;;4.85;2.25;;;24.30;53.50;;;;;;5002608;28;20030;-53
2022/08/03 08:11:36;;;;;;;4.30;2.22;;;24.30;53.40;;;;;;5006314;28;20199;-52
2022/08/03 08:14:02;;;;;;;3.53;2.03;;;24.30;53.00;;;;;;5006704;28;20178;-57
2022/08/03 08:16:28;;;;;;;2.60;2.30;;;24.30;52.30;;;;;;5006680;28;20076;-53
2022/08/03 08:18:53;;;;;;;4.40;2.08;;;24.30;52.80;;;;;;5006678;28;20030;-53
2022/08/03 08:21:19;;;;;;;2.20;2.00;;;24.40;53.00;;;;;;5006714;28;20553;-53
2022/08/03 08:23:44;;;;;;;3.42;2.38;;;24.30;52.60;;;;;;5006385;28;20030;-54
2022/08/03 08:26:10;;;;;;;2.45;2.22;;;24.30;52.10;;;;;;5006349;28;20018;-55
2022/08/03 08:28:35;;;;;;;2.65;1.90;;;24.40;52.40;;;;;;5005829;28;20037;-53
2022/08/03 08:31:01;;;;;;;2.00;1.90;;;24.30;52.30;;;;;;5004359;28;20091;-56
2022/08/03 08:33:26;;;;;;;3.88;2.10;;;24.30;51.70;;;;;;5006664;28;20602;-52
2022/08/03 08:35:52;;;;;;;3.55;2.45;;;24.40;51.40;;;;;;5006526;28;20632;-54
2022/08/03 08:38:19;;;;;;;3.47;2.28;;;24.30;52.00;;;;;;5006181;28;20052;-56
2022/08/03 08:40:44;;;;;;;2.30;2.10;;;24.30;51.80;;;;;;5006108;28;20033;-55
2022/08/03 08:43:10;;;;;;;2.42;2.10;;;24.40;52.10;;;;;;5005395;28;20128;-55
2022/08/03 08:45:36;;;;;;;3.05;2.38;;;24.40;52.00;;;;;;5004848;28;20022;-56
2022/08/03 08:48:01;;;;;;;2.58;2.38;;;24.40;52.10;;;;;;5004825;28;20037;-57
2022/08/03 08:50:27;;;;;;;4.32;2.38;;;24.40;52.20;;;;;;5005944;28;20037;-56
2022/08/03 08:52:52;;;;;;;2.58;2.30;;;24.40;52.00;;;;;;5004030;28;20099;-56
2022/08/03 08:55:19;;;;;;;3.38;2.40;;;24.50;52.30;;;;;;5006163;28;20033;-57
2022/08/03 08:58:04;;;;;;;4.40;2.40;;;24.50;52.40;;;;;;5004646;28;20038;-55
2022/08/03 09:00:30;;;;;;;5.23;2.30;;;24.50;52.40;;;;;;5004660;28;20029;-56
2022/08/03 09:02:55;;;;;;;4.72;2.28;;;24.50;52.50;;;;;;5005152;28;20447;-56
2022/08/03 09:05:21;;;;;;;3.20;2.30;;;24.60;52.70;;;;;;5005717;28;20037;-53
2022/08/03 09:07:47;;;;;;;3.53;2.22;;;24.60;52.20;;;;;;5005518;28;20092;-57
2022/08/03 09:10:13;;;;;;;4.82;2.20;;;24.50;52.90;;;;;;5011686;28;20033;-55
2022/08/03 09:12:43;;;;;;;3.70;2.40;;;24.60;52.30;;;;;;5023742;28;20033;-54
2022/08/03 09:15:27;;;;;;;3.55;2.30;;;24.50;52.60;;;;;;5023207;28;20022;-56
2022/08/03 09:17:54;;;;;;;2.70;2.10;;;24.50;52.70;;;;;;5018907;28;20048;-55
2022/08/03 09:20:20;;;;;;;3.72;2.60;;;24.50;53.40;;;;;;5003217;28;20034;-53
2022/08/03 09:22:52;;;;;;;5.82;2.65;;;24.40;54.20;;;;;;5004632;28;20034;-55
2022/08/03 09:25:18;;;;;;;5.20;2.60;;;24.30;54.30;;;;;;5004121;28;20071;-55
2022/08/03 09:27:44;;;;;;;4.72;2.90;;;24.40;54.40;;;;;;5003398;28;20109;-57
2022/08/03 09:30:14;;;;;;;6.35;2.70;;;24.40;54.30;;;;;;5003881;28;20633;-54
2022/08/03 09:32:39;;;;;;;3.10;2.38;;;24.50;54.30;;;;;;5003755;28;20042;-53
2022/08/03 09:35:05;;;;;;;6.32;2.38;;;24.50;54.20;;;;;;5003721;28;20887;-51
2022/08/03 09:37:30;;;;;;;3.15;2.60;;;24.50;53.70;;;;;;5003840;28;20041;-54
2022/08/03 09:39:56;;;;;;;4.90;2.28;;;24.50;54.00;;;;;;5003462;28;20037;-57
2022/08/03 09:42:22;;;;;;;4.80;2.38;;;24.50;54.00;;;;;;5002229;28;20391;-52
2022/08/03 09:44:49;;;;;;;2.95;2.20;;;24.50;54.50;;;;;;5003235;28;20056;-54
2022/08/03 09:47:36;;;;;;;5.95;2.50;;;24.50;53.70;;;;;;5003924;28;20052;-55
2022/08/03 09:50:06;;;;;;;2.20;2.00;;;24.50;53.50;;;;;;5001221;28;20026;-57
2022/08/03 09:52:36;;;;;;;2.58;2.38;;;24.50;53.20;;;;;;5003608;28;20025;-55
2022/08/03 09:55:06;;;;;;;3.65;2.03;;;24.50;52.70;;;;;;5004753;28;20037;-53
2022/08/03 09:57:32;;;;;;;4.07;2.28;;;24.50;52.70;;;;;;5001237;28;20046;-53
2022/08/03 10:00:14;;;;;;;2.40;2.20;;;24.50;52.30;;;;;;5005641;28;20754;-55
2022/08/03 10:02:40;;;;;;;3.47;2.25;;;24.50;52.90;;;;;;4988313;28;20043;-55
2022/08/03 10:05:07;;;;;;;4.63;1.85;;;24.50;52.50;;;;;;4988297;28;20062;-54
2022/08/03 10:07:46;;;;;;;3.30;2.10;;;24.50;52.40;;;;;;5007104;28;20037;-51
2022/08/03 10:10:12;;;;;;;5.35;2.65;;;24.60;52.40;;;;;;5019176;28;20128;-53
2022/08/03 10:12:38;;;;;;;3.65;2.22;;;24.60;52.30;;;;;;5005798;28;20112;-53
2022/08/03 10:15:04;;;;;;;3.67;2.25;;;24.60;52.40;;;;;;5007217;28;20088;-56
2022/08/03 10:17:29;;;;;;;4.25;2.13;;;24.70;52.50;;;;;;5007493;28;20053;-52
2022/08/03 10:19:56;;;;;;;2.53;2.20;;;24.70;52.70;;;;;;5007215;28;20509;-53
2022/08/03 10:22:22;;;;;;;5.03;2.30;;;24.60;52.80;;;;;;5007342;28;20137;-56
2022/08/03 10:25:07;;;;;;;2.33;2.13;;;24.70;52.80;;;;;;5006978;28;20125;-53
2022/08/03 10:27:34;;;;;;;;;;;24.70;53.00;;;;;;5006380;28;20034;-55
2022/08/03 10:30:03;;;;;;;2.58;2.15;;;24.70;52.70;;;;;;5005580;28;19917;-54
2022/08/03 10:35:05;;;;;;;3.35;2.30;;;24.70;52.50;;;;;;5064799;22;20503;-68
2022/08/03 10:37:31;;;;;;;2.25;2.10;;;24.70;52.40;;;;;;5049195;28;20480;-69
2022/08/03 10:39:57;;;;;;;2.65;2.08;;;24.70;52.40;;;;;;5050795;28;20036;-68
2022/08/03 10:42:23;;;;;;;2.40;2.20;;;24.70;52.20;;;;;;5046986;28;20029;-68
2022/08/03 10:44:51;;;;;;;3.78;1.90;;;24.70;52.20;;;;;;5043739;28;20492;-68
2022/08/03 10:47:17;;;;;;;2.40;2.10;;;24.80;51.90;;;;;;5035852;28;20029;-68
2022/08/03 10:49:42;;;;;;;3.25;2.17;;;24.70;51.90;;;;;;5027164;28;20477;-68
2022/08/03 10:52:08;;;;;;;3.67;2.20;;;24.70;51.90;;;;;;5037062;28;20035;-68
2022/08/03 10:54:36;;;;;;;2.03;1.83;;;24.70;51.70;;;;;;5018055;28;20033;-68
2022/08/03 10:59:46;;;;;;;3.28;1.85;;;24.70;51.70;;;;;;5046493;28;20083;-68
2022/08/03 11:02:14;;;;;;;3.63;2.13;;;24.80;51.30;;;;;;5046684;28;20438;-67
2022/08/03 11:04:40;;;;;;;6.05;2.10;;;24.80;51.30;;;;;;5046577;28;20039;-68
2022/08/03 11:07:21;;;;;;;2.83;2.08;;;24.80;51.30;;;;;;5028427;28;20024;-68
2022/08/03 11:09:53;;;;;;;2.10;1.80;;;24.80;50.90;;;;;;5046041;28;20036;-68
2022/08/03 11:12:26;;;;;;;1.90;1.70;;;24.80;50.70;;;;;;5030233;28;20037;-67
2022/08/03 11:14:51;;;;;;;1.80;1.70;;;24.80;50.90;;;;;;5047591;28;20490;-68
2022/08/03 11:17:16;;;;;;;2.22;1.92;;;24.80;50.40;;;;;;5019127;28;20025;-68
2022/08/03 11:19:49;;;;;;;2.30;2.10;;;24.80;50.70;;;;;;5029364;28;20049;-67
2022/08/03 11:22:15;;;;;;;4.57;2.25;;;24.80;50.30;;;;;;5033408;28;20071;-68
2022/08/03 11:24:42;;;;;;;4.18;2.50;;;24.80;50.10;;;;;;5029529;28;20451;-68
2022/08/03 11:27:13;;;;;;;2.10;1.90;;;24.90;50.30;;;;;;5047549;28;20559;-68
2022/08/03 11:30:13;;;;;;;2.65;1.90;;;24.80;50.00;;;;;;5047078;28;20033;-68
2022/08/03 11:32:39;;;;;;;2.05;1.95;;;24.90;50.00;;;;;;5034779;28;20423;-68
2022/08/03 11:35:08;;;;;;;3.33;1.80;;;24.90;49.70;;;;;;5047315;28;20090;-68
2022/08/03 11:37:33;;;;;;;2.83;1.92;;;24.90;49.70;;;;;;5046848;28;20051;-68
2022/08/03 11:39:59;;;;;;;4.75;2.20;;;24.90;50.20;;;;;;5013049;28;20100;-68
2022/08/03 11:42:25;;;;;;;2.28;2.08;;;24.90;49.70;;;;;;5014901;28;20090;-68
2022/08/03 11:44:55;;;;;;;2.42;2.20;;;24.90;49.70;;;;;;5046607;28;20044;-69
2022/08/03 11:47:21;;;;;;;4.75;1.90;;;24.90;49.80;;;;;;5047618;28;20071;-67
2022/08/03 11:49:47;;;;;;;3.33;1.95;;;24.90;49.80;;;;;;5028470;28;20538;-68
2022/08/03 11:52:13;;;;;;;2.08;1.98;;;24.90;50.10;;;;;;5029211;28;20455;-68
2022/08/03 11:54:39;;;;;;;3.45;2.20;;;24.90;50.20;;;;;;5045662;28;20029;-68
2022/08/03 11:57:05;;;;;;;2.33;1.92;;;24.90;50.20;;;;;;5045741;28;20044;-67
2022/08/03 11:59:34;;;;;;;2.83;2.33;;;24.90;50.10;;;;;;5030089;28;20033;-67
2022/08/03 12:02:10;;;;;;;4.30;2.35;;;25.00;49.80;;;;;;5046419;28;20292;-68
2022/08/03 12:04:57;;;;;;;;;;;25.00;50.00;;;;;;5000078;28;20037;-67
2022/08/03 12:07:22;;;;;;;2.78;2.00;;;25.00;50.10;;;;;;5028432;28;19983;-68
2022/08/03 12:10:10;;;;;;;3.30;2.42;;;25.00;49.80;;;;;;5046212;28;20029;-69
2022/08/03 12:12:36;;;;;;;3.70;2.10;;;25.10;49.80;;;;;;5024323;28;20071;-68
2022/08/03 12:15:02;;;;;;;2.83;1.90;;;25.00;49.90;;;;;;5012820;28;20116;-68
2022/08/03 12:17:33;;;;;;;3.60;2.22;;;25.10;49.40;;;;;;5028640;28;20041;-68
2022/08/03 12:19:58;;;;;;;2.47;2.15;;;25.10;49.70;;;;;;5045118;28;20040;-69
2022/08/03 12:22:34;;;;;;;3.58;1.95;;;25.10;49.00;;;;;;5045063;28;20083;-68
2022/08/03 12:25:00;;;;;;;2.85;2.00;;;25.10;49.20;;;;;;5009072;28;20068;-67
2022/08/03 12:27:26;;;;;;;2.35;2.15;;;25.10;49.40;;;;;;5008630;28;20061;-68
2022/08/03 12:29:53;;;;;;;3.63;2.20;;;25.10;49.40;;;;;;5043776;28;20037;-68
2022/08/03 12:32:18;;;;;;;3.13;2.20;;;25.10;49.50;;;;;;5045076;28;20029;-68
2022/08/03 12:34:45;;;;;;;2.80;2.13;;;25.10;49.60;;;;;;5045945;28;20400;-67
2022/08/03 12:37:10;;;;;;;2.22;2.05;;;25.10;49.60;;;;;;5046408;28;20057;-68
2022/08/03 12:39:36;;;;;;;4.03;2.13;;;25.10;49.40;;;;;;5039564;28;20126;-68
2022/08/03 12:42:01;;;;;;;2.78;2.22;;;25.20;48.70;;;;;;5029478;28;20495;-68
2022/08/03 12:44:31;;;;;;;2.95;2.17;;;25.20;49.10;;;;;;5033987;28;20033;-68
2022/08/03 12:46:57;;;;;;;2.47;2.17;;;25.20;48.80;;;;;;5028772;28;20032;-67
2022/08/03 12:49:23;;;;;;;2.40;2.20;;;25.20;48.90;;;;;;5037593;28;20037;-67
2022/08/03 12:51:51;;;;;;;2.90;2.53;;;25.20;49.10;;;;;;5045150;28;20037;-68
2022/08/03 12:54:21;;;;;;;2.55;2.35;;;25.20;48.70;;;;;;5045530;28;20029;-67
2022/08/03 12:57:09;;;;;;;3.00;1.90;;;25.30;48.80;;;;;;5028114;28;20052;-68
2022/08/03 12:59:41;;;;;;;2.05;1.90;;;25.30;49.10;;;;;;5037047;28;20025;-68
2022/08/03 13:02:17;;;;;;;2.75;2.00;;;25.20;49.00;;;;;;5045976;28;20108;-68
2022/08/03 13:04:42;;;;;;;2.17;1.92;;;25.30;48.40;;;;;;5033832;28;20444;-67